sensor_id;sensor_type;location;lat;lon;timestamp;temperature;humidity
21830;DHT22;11077;50.264;6.798;2022-10-16T00:01:28;12.90;99.90
21830;DHT22;11077;50.264;6.798;2022-10-16T00:03:56;12.90;99.90
21830;DHT22;11077;50.264;6.798;2022-10-16T00:06:25;12.90;99.90
21830;DHT22;11077;50.264;6.798;2022-10-16T00:08:52;12.90;99.90
21830;DHT22;11077;50.264;6.798;2022-10-16T00:11:21;12.80;99.90
21830;DHT22;11077;50.264;6.798;2022-10-16T00:13:54;12.80;99.90
21830;DHT22;11077;50.264;6.798;2022-10-16T00:16:22;12.80;99.90
21830;DHT22;11077;50.264;6.798;2022-10-16T00:18:49;12.70;99.90
21830;DHT22;11077;50.264;6.798;2022-10-16T00:21:19;12.70;99.90
21830;DHT22;11077;50.264;6.798;2022-10-16T00:23:46;12.70;99.90
21830;DHT22;11077;50.264;6.798;2022-10-16T00:26:15;12.70;99.90
21830;DHT22;11077;50.264;6.798;2022-10-16T00:28:45;12.60;99.90
21830;DHT22;11077;50.264;6.798;2022-10-16T00:31:14;12.60;99.90
21830;DHT22;11077;50.264;6.798;2022-10-16T00:33:42;12.60;99.90
21830;DHT22;11077;50.264;6.798;2022-10-16T00:36:11;12.60;99.90
21830;DHT22;11077;50.264;6.798;2022-10-16T00:38:39;12.60;99.90
21830;DHT22;11077;50.264;6.798;2022-10-16T00:41:10;12.60;99.90
21830;DHT22;11077;50.264;6.798;2022-10-16T00:43:41;12.60;99.90
21830;DHT22;11077;50.264;6.798;2022-10-16T00:46:18;12.50;99.90
21830;DHT22;11077;50.264;6.798;2022-10-16T00:48:50;12.50;99.90
21830;DHT22;11077;50.264;6.798;2022-10-16T00:51:23;12.40;99.90
21830;DHT22;11077;50.264;6.798;2022-10-16T00:53:52;12.50;99.90
21830;DHT22;11077;50.264;6.798;2022-10-16T00:56:20;12.40;99.90
21830;DHT22;11077;50.264;6.798;2022-10-16T00:58:47;12.40;99.90
21830;DHT22;11077;50.264;6.798;2022-10-16T01:01:17;12.40;99.90
21830;DHT22;11077;50.264;6.798;2022-10-16T01:03:45;12.30;99.90
21830;DHT22;11077;50.264;6.798;2022-10-16T01:06:23;12.20;99.90
21830;DHT22;11077;50.264;6.798;2022-10-16T01:09:00;12.20;99.90
21830;DHT22;11077;50.264;6.798;2022-10-16T01:11:34;12.20;99.90
21830;DHT22;11077;50.264;6.798;2022-10-16T01:14:08;12.10;99.90
21830;DHT22;11077;50.264;6.798;2022-10-16T01:16:44;12.20;99.90
21830;DHT22;11077;50.264;6.798;2022-10-16T01:19:19;12.20;99.90
21830;DHT22;11077;50.264;6.798;2022-10-16T01:21:48;12.20;99.90
21830;DHT22;11077;50.264;6.798;2022-10-16T01:24:30;12.20;99.90
21830;DHT22;11077;50.264;6.798;2022-10-16T01:27:10;12.20;99.90
21830;DHT22;11077;50.264;6.798;2022-10-16T01:29:44;12.20;99.90
21830;DHT22;11077;50.264;6.798;2022-10-16T01:32:17;12.20;99.90
21830;DHT22;11077;50.264;6.798;2022-10-16T01:34:49;12.20;99.90
21830;DHT22;11077;50.264;6.798;2022-10-16T01:37:25;12.20;99.90
21830;DHT22;11077;50.264;6.798;2022-10-16T01:39:58;12.20;99.90
21830;DHT22;11077;50.264;6.798;2022-10-16T01:42:31;12.20;99.90
21830;DHT22;11077;50.264;6.798;2022-10-16T01:45:01;12.20;99.90
21830;DHT22;11077;50.264;6.798;2022-10-16T01:47:30;12.20;99.90
21830;DHT22;11077;50.264;6.798;2022-10-16T01:49:59;12.20;99.90
21830;DHT22;11077;50.264;6.798;2022-10-16T01:52:32;12.10;99.90
21830;DHT22;11077;50.264;6.798;2022-10-16T01:55:02;12.20;99.90
21830;DHT22;11077;50.264;6.798;2022-10-16T01:57:34;12.10;99.90
21830;DHT22;11077;50.264;6.798;2022-10-16T02:00:07;12.20;99.90
21830;DHT22;11077;50.264;6.798;2022-10-16T02:02:39;12.20;99.90
21830;DHT22;11077;50.264;6.798;2022-10-16T02:05:14;12.20;99.90
21830;DHT22;11077;50.264;6.798;2022-10-16T02:07:43;12.20;99.90
21830;DHT22;11077;50.264;6.798;2022-10-16T02:10:11;12.20;99.90
21830;DHT22;11077;50.264;6.798;2022-10-16T02:12:42;12.20;99.90
21830;DHT22;11077;50.264;6.798;2022-10-16T02:15:11;12.30;99.90
21830;DHT22;11077;50.264;6.798;2022-10-16T02:17:41;12.30;99.90
21830;DHT22;11077;50.264;6.798;2022-10-16T02:20:09;12.30;99.90
21830;DHT22;11077;50.264;6.798;2022-10-16T02:22:41;12.30;99.90
21830;DHT22;11077;50.264;6.798;2022-10-16T02:25:15;12.30;99.90
21830;DHT22;11077;50.264;6.798;2022-10-16T02:27:51;12.30;99.90
21830;DHT22;11077;50.264;6.798;2022-10-16T02:30:26;12.30;99.90
21830;DHT22;11077;50.264;6.798;2022-10-16T02:32:54;12.30;99.90
21830;DHT22;11077;50.264;6.798;2022-10-16T02:35:23;12.30;99.90
21830;DHT22;11077;50.264;6.798;2022-10-16T02:37:53;12.20;99.90
21830;DHT22;11077;50.264;6.798;2022-10-16T02:40:25;12.20;99.90
21830;DHT22;11077;50.264;6.798;2022-10-16T02:43:04;12.20;99.90
21830;DHT22;11077;50.264;6.798;2022-10-16T02:45:32;12.20;99.90
21830;DHT22;11077;50.264;6.798;2022-10-16T02:47:59;12.20;99.90
21830;DHT22;11077;50.264;6.798;2022-10-16T02:50:26;12.20;99.90
21830;DHT22;11077;50.264;6.798;2022-10-16T02:52:54;12.20;99.90
21830;DHT22;11077;50.264;6.798;2022-10-16T02:55:21;12.20;99.90
21830;DHT22;11077;50.264;6.798;2022-10-16T02:57:48;12.20;99.90
21830;DHT22;11077;50.264;6.798;2022-10-16T03:00:17;12.20;99.90
21830;DHT22;11077;50.264;6.798;2022-10-16T03:02:45;12.20;99.90
21830;DHT22;11077;50.264;6.798;2022-10-16T03:05:13;12.30;99.90
21830;DHT22;11077;50.264;6.798;2022-10-16T03:07:41;12.30;99.90
21830;DHT22;11077;50.264;6.798;2022-10-16T03:10:09;12.30;99.90
21830;DHT22;11077;50.264;6.798;2022-10-16T03:12:36;12.30;99.90
21830;DHT22;11077;50.264;6.798;2022-10-16T03:15:04;12.40;99.90
21830;DHT22;11077;50.264;6.798;2022-10-16T03:17:33;12.40;99.90
21830;DHT22;11077;50.264;6.798;2022-10-16T03:20:01;12.40;99.90
21830;DHT22;11077;50.264;6.798;2022-10-16T03:22:29;12.50;99.90
21830;DHT22;11077;50.264;6.798;2022-10-16T03:24:56;12.50;99.90
21830;DHT22;11077;50.264;6.798;2022-10-16T03:30:11;12.50;99.90
21830;DHT22;11077;50.264;6.798;2022-10-16T03:32:40;12.40;99.90
21830;DHT22;11077;50.264;6.798;2022-10-16T03:35:08;12.50;99.90
21830;DHT22;11077;50.264;6.798;2022-10-16T03:37:35;12.50;99.90
21830;DHT22;11077;50.264;6.798;2022-10-16T03:40:04;12.50;99.90
21830;DHT22;11077;50.264;6.798;2022-10-16T03:42:32;12.50;99.90
21830;DHT22;11077;50.264;6.798;2022-10-16T03:45:03;12.50;99.90
21830;DHT22;11077;50.264;6.798;2022-10-16T03:47:31;12.50;99.90
21830;DHT22;11077;50.264;6.798;2022-10-16T03:50:00;12.50;99.90
21830;DHT22;11077;50.264;6.798;2022-10-16T03:52:28;12.50;99.90
21830;DHT22;11077;50.264;6.798;2022-10-16T03:54:55;12.60;99.90
21830;DHT22;11077;50.264;6.798;2022-10-16T03:57:23;12.60;99.90
21830;DHT22;11077;50.264;6.798;2022-10-16T03:59:51;12.60;99.90
21830;DHT22;11077;50.264;6.798;2022-10-16T04:02:18;12.60;99.90
21830;DHT22;11077;50.264;6.798;2022-10-16T04:04:45;12.60;99.90
21830;DHT22;11077;50.264;6.798;2022-10-16T04:07:14;12.60;99.90
21830;DHT22;11077;50.264;6.798;2022-10-16T04:09:41;12.60;99.90
21830;DHT22;11077;50.264;6.798;2022-10-16T04:12:09;12.60;99.90
21830;DHT22;11077;50.264;6.798;2022-10-16T04:14:37;12.70;99.90
21830;DHT22;11077;50.264;6.798;2022-10-16T04:17:04;12.60;99.90
21830;DHT22;11077;50.264;6.798;2022-10-16T04:19:32;12.70;99.90
21830;DHT22;11077;50.264;6.798;2022-10-16T04:21:59;12.60;99.90
21830;DHT22;11077;50.264;6.798;2022-10-16T04:24:28;12.70;99.90
21830;DHT22;11077;50.264;6.798;2022-10-16T04:26:55;12.60;99.90
21830;DHT22;11077;50.264;6.798;2022-10-16T04:29:23;12.70;99.90
21830;DHT22;11077;50.264;6.798;2022-10-16T04:31:50;12.70;99.90
21830;DHT22;11077;50.264;6.798;2022-10-16T04:34:18;12.70;99.90
21830;DHT22;11077;50.264;6.798;2022-10-16T04:36:47;12.60;99.90
21830;DHT22;11077;50.264;6.798;2022-10-16T04:39:15;12.60;99.90
21830;DHT22;11077;50.264;6.798;2022-10-16T04:41:44;12.50;99.90
21830;DHT22;11077;50.264;6.798;2022-10-16T04:44:12;12.60;99.90
21830;DHT22;11077;50.264;6.798;2022-10-16T04:46:39;12.60;99.90
21830;DHT22;11077;50.264;6.798;2022-10-16T04:49:06;12.60;99.90
21830;DHT22;11077;50.264;6.798;2022-10-16T04:51:34;12.50;99.90
21830;DHT22;11077;50.264;6.798;2022-10-16T04:54:01;12.60;99.90
21830;DHT22;11077;50.264;6.798;2022-10-16T04:56:29;12.60;99.90
21830;DHT22;11077;50.264;6.798;2022-10-16T04:58:58;12.60;99.90
21830;DHT22;11077;50.264;6.798;2022-10-16T05:01:25;12.60;99.90
21830;DHT22;11077;50.264;6.798;2022-10-16T05:03:52;12.60;99.90
21830;DHT22;11077;50.264;6.798;2022-10-16T05:06:20;12.60;99.90
21830;DHT22;11077;50.264;6.798;2022-10-16T05:08:47;12.60;99.90
21830;DHT22;11077;50.264;6.798;2022-10-16T05:11:15;12.60;99.90
21830;DHT22;11077;50.264;6.798;2022-10-16T05:13:42;12.60;99.90
21830;DHT22;11077;50.264;6.798;2022-10-16T05:16:11;12.60;99.90
21830;DHT22;11077;50.264;6.798;2022-10-16T05:18:38;12.60;99.90
21830;DHT22;11077;50.264;6.798;2022-10-16T05:21:06;12.60;99.90
21830;DHT22;11077;50.264;6.798;2022-10-16T05:23:33;12.50;99.90
21830;DHT22;11077;50.264;6.798;2022-10-16T05:26:00;12.50;99.90
21830;DHT22;11077;50.264;6.798;2022-10-16T05:28:29;12.60;99.90
21830;DHT22;11077;50.264;6.798;2022-10-16T05:31:04;12.50;99.90
21830;DHT22;11077;50.264;6.798;2022-10-16T05:33:34;12.50;99.90
21830;DHT22;11077;50.264;6.798;2022-10-16T05:36:02;12.50;99.90
21830;DHT22;11077;50.264;6.798;2022-10-16T05:38:30;12.50;99.90
21830;DHT22;11077;50.264;6.798;2022-10-16T05:40:57;12.50;99.90
21830;DHT22;11077;50.264;6.798;2022-10-16T05:43:26;12.50;99.90
21830;DHT22;11077;50.264;6.798;2022-10-16T05:45:55;12.40;99.90
21830;DHT22;11077;50.264;6.798;2022-10-16T05:48:23;12.40;99.90
21830;DHT22;11077;50.264;6.798;2022-10-16T05:50:58;12.40;99.90
21830;DHT22;11077;50.264;6.798;2022-10-16T05:53:27;12.50;99.90
21830;DHT22;11077;50.264;6.798;2022-10-16T05:55:56;12.40;99.90
21830;DHT22;11077;50.264;6.798;2022-10-16T05:58:25;12.40;99.90
21830;DHT22;11077;50.264;6.798;2022-10-16T06:00:54;12.40;99.90
21830;DHT22;11077;50.264;6.798;2022-10-16T06:03:23;12.40;99.90
21830;DHT22;11077;50.264;6.798;2022-10-16T06:05:50;12.40;99.90
21830;DHT22;11077;50.264;6.798;2022-10-16T06:08:21;12.40;99.90
21830;DHT22;11077;50.264;6.798;2022-10-16T06:10:57;12.40;99.90
21830;DHT22;11077;50.264;6.798;2022-10-16T06:13:27;12.40;99.90
21830;DHT22;11077;50.264;6.798;2022-10-16T06:15:57;12.40;99.90
21830;DHT22;11077;50.264;6.798;2022-10-16T06:18:25;12.40;99.90
21830;DHT22;11077;50.264;6.798;2022-10-16T06:20:53;12.40;99.90
21830;DHT22;11077;50.264;6.798;2022-10-16T06:23:23;12.40;99.90
21830;DHT22;11077;50.264;6.798;2022-10-16T06:25:51;12.30;99.90
21830;DHT22;11077;50.264;6.798;2022-10-16T06:28:19;12.30;99.90
21830;DHT22;11077;50.264;6.798;2022-10-16T06:30:47;12.30;99.90
21830;DHT22;11077;50.264;6.798;2022-10-16T06:33:14;12.30;99.90
21830;DHT22;11077;50.264;6.798;2022-10-16T06:35:42;12.30;99.90
21830;DHT22;11077;50.264;6.798;2022-10-16T06:38:09;12.30;99.90
21830;DHT22;11077;50.264;6.798;2022-10-16T06:40:41;12.40;99.90
21830;DHT22;11077;50.264;6.798;2022-10-16T06:43:09;12.40;99.90
21830;DHT22;11077;50.264;6.798;2022-10-16T06:45:37;12.40;99.90
21830;DHT22;11077;50.264;6.798;2022-10-16T06:48:04;12.40;99.90
21830;DHT22;11077;50.264;6.798;2022-10-16T06:50:31;12.40;99.90
21830;DHT22;11077;50.264;6.798;2022-10-16T06:53:03;12.40;99.90
21830;DHT22;11077;50.264;6.798;2022-10-16T06:55:30;12.50;99.90
21830;DHT22;11077;50.264;6.798;2022-10-16T06:57:59;12.50;99.90
21830;DHT22;11077;50.264;6.798;2022-10-16T07:00:27;12.50;99.90
21830;DHT22;11077;50.264;6.798;2022-10-16T07:02:54;12.60;99.90
21830;DHT22;11077;50.264;6.798;2022-10-16T07:05:22;12.60;99.90
21830;DHT22;11077;50.264;6.798;2022-10-16T07:07:51;12.60;99.90
21830;DHT22;11077;50.264;6.798;2022-10-16T07:10:18;12.50;99.90
21830;DHT22;11077;50.264;6.798;2022-10-16T07:12:46;12.60;99.90
21830;DHT22;11077;50.264;6.798;2022-10-16T07:15:15;12.60;99.90
21830;DHT22;11077;50.264;6.798;2022-10-16T07:17:42;12.60;99.90
21830;DHT22;11077;50.264;6.798;2022-10-16T07:20:10;12.60;99.90
21830;DHT22;11077;50.264;6.798;2022-10-16T07:22:37;12.60;99.90
21830;DHT22;11077;50.264;6.798;2022-10-16T07:25:06;12.60;99.90
21830;DHT22;11077;50.264;6.798;2022-10-16T07:27:33;12.60;99.90
21830;DHT22;11077;50.264;6.798;2022-10-16T07:30:02;12.60;99.90
21830;DHT22;11077;50.264;6.798;2022-10-16T07:32:32;12.60;99.90
21830;DHT22;11077;50.264;6.798;2022-10-16T07:35:00;12.60;99.90
21830;DHT22;11077;50.264;6.798;2022-10-16T07:37:28;12.70;99.90
21830;DHT22;11077;50.264;6.798;2022-10-16T07:39:55;12.70;99.90
21830;DHT22;11077;50.264;6.798;2022-10-16T07:42:27;12.70;99.90
21830;DHT22;11077;50.264;6.798;2022-10-16T07:44:55;12.70;99.90
21830;DHT22;11077;50.264;6.798;2022-10-16T07:47:23;12.70;99.90
21830;DHT22;11077;50.264;6.798;2022-10-16T07:49:52;12.70;99.90
21830;DHT22;11077;50.264;6.798;2022-10-16T07:52:19;12.70;99.90
21830;DHT22;11077;50.264;6.798;2022-10-16T07:54:47;12.70;99.90
21830;DHT22;11077;50.264;6.798;2022-10-16T07:57:15;12.70;99.90
21830;DHT22;11077;50.264;6.798;2022-10-16T07:59:47;12.80;99.90
21830;DHT22;11077;50.264;6.798;2022-10-16T08:02:14;12.70;99.90
21830;DHT22;11077;50.264;6.798;2022-10-16T08:04:42;12.80;99.90
21830;DHT22;11077;50.264;6.798;2022-10-16T08:07:11;12.80;99.90
21830;DHT22;11077;50.264;6.798;2022-10-16T08:09:48;12.80;99.90
21830;DHT22;11077;50.264;6.798;2022-10-16T08:12:22;12.80;99.90
21830;DHT22;11077;50.264;6.798;2022-10-16T08:14:56;12.80;99.90
21830;DHT22;11077;50.264;6.798;2022-10-16T08:17:24;12.90;99.90
21830;DHT22;11077;50.264;6.798;2022-10-16T08:19:53;12.80;99.90
21830;DHT22;11077;50.264;6.798;2022-10-16T08:22:23;12.80;99.90
21830;DHT22;11077;50.264;6.798;2022-10-16T08:24:51;12.90;99.90
21830;DHT22;11077;50.264;6.798;2022-10-16T08:27:18;12.90;99.90
21830;DHT22;11077;50.264;6.798;2022-10-16T08:29:48;12.90;99.90
21830;DHT22;11077;50.264;6.798;2022-10-16T08:32:15;12.90;99.90
21830;DHT22;11077;50.264;6.798;2022-10-16T08:34:43;12.90;99.90
21830;DHT22;11077;50.264;6.798;2022-10-16T08:37:10;13.00;99.90
21830;DHT22;11077;50.264;6.798;2022-10-16T08:39:41;13.10;99.90
21830;DHT22;11077;50.264;6.798;2022-10-16T08:42:21;13.10;99.90
21830;DHT22;11077;50.264;6.798;2022-10-16T08:45:07;13.20;99.90
21830;DHT22;11077;50.264;6.798;2022-10-16T08:47:47;13.20;99.90
21830;DHT22;11077;50.264;6.798;2022-10-16T08:50:21;13.30;99.90
21830;DHT22;11077;50.264;6.798;2022-10-16T08:52:50;13.30;99.90
21830;DHT22;11077;50.264;6.798;2022-10-16T08:55:30;13.30;99.90
21830;DHT22;11077;50.264;6.798;2022-10-16T08:57:58;13.30;99.90
21830;DHT22;11077;50.264;6.798;2022-10-16T09:00:26;13.30;99.90
21830;DHT22;11077;50.264;6.798;2022-10-16T09:03:03;13.40;99.90
21830;DHT22;11077;50.264;6.798;2022-10-16T09:05:49;13.40;99.90
21830;DHT22;11077;50.264;6.798;2022-10-16T09:08:24;13.40;99.90
21830;DHT22;11077;50.264;6.798;2022-10-16T09:10:59;13.50;99.90
21830;DHT22;11077;50.264;6.798;2022-10-16T09:13:39;13.60;99.90
21830;DHT22;11077;50.264;6.798;2022-10-16T09:16:16;13.70;99.90
21830;DHT22;11077;50.264;6.798;2022-10-16T09:18:52;14.00;99.90
21830;DHT22;11077;50.264;6.798;2022-10-16T09:21:23;14.20;99.90
21830;DHT22;11077;50.264;6.798;2022-10-16T09:23:54;14.30;99.90
21830;DHT22;11077;50.264;6.798;2022-10-16T09:26:25;14.50;99.90
21830;DHT22;11077;50.264;6.798;2022-10-16T09:28:53;14.70;99.90
21830;DHT22;11077;50.264;6.798;2022-10-16T09:31:22;14.80;99.90
21830;DHT22;11077;50.264;6.798;2022-10-16T09:33:53;14.90;99.90
21830;DHT22;11077;50.264;6.798;2022-10-16T09:36:23;14.90;99.90
21830;DHT22;11077;50.264;6.798;2022-10-16T09:39:02;15.00;99.90
21830;DHT22;11077;50.264;6.798;2022-10-16T09:41:34;15.10;99.90
21830;DHT22;11077;50.264;6.798;2022-10-16T09:44:05;15.30;99.90
21830;DHT22;11077;50.264;6.798;2022-10-16T09:46:34;15.40;99.90
21830;DHT22;11077;50.264;6.798;2022-10-16T09:49:04;15.40;99.90
21830;DHT22;11077;50.264;6.798;2022-10-16T09:51:33;15.50;99.90
21830;DHT22;11077;50.264;6.798;2022-10-16T09:54:11;15.60;99.90
21830;DHT22;11077;50.264;6.798;2022-10-16T09:56:41;15.80;99.90
21830;DHT22;11077;50.264;6.798;2022-10-16T09:59:13;16.00;99.90
21830;DHT22;11077;50.264;6.798;2022-10-16T10:01:46;16.10;99.90
21830;DHT22;11077;50.264;6.798;2022-10-16T10:04:17;16.10;99.90
21830;DHT22;11077;50.264;6.798;2022-10-16T10:06:50;16.20;99.90
21830;DHT22;11077;50.264;6.798;2022-10-16T10:09:23;16.10;99.90
21830;DHT22;11077;50.264;6.798;2022-10-16T10:11:54;16.10;99.90
21830;DHT22;11077;50.264;6.798;2022-10-16T10:14:28;16.10;99.90
21830;DHT22;11077;50.264;6.798;2022-10-16T10:17:12;16.10;99.90
21830;DHT22;11077;50.264;6.798;2022-10-16T10:19:42;16.20;99.90
21830;DHT22;11077;50.264;6.798;2022-10-16T10:22:28;16.30;99.90
21830;DHT22;11077;50.264;6.798;2022-10-16T10:25:20;16.40;99.90
21830;DHT22;11077;50.264;6.798;2022-10-16T10:28:17;16.60;99.90
21830;DHT22;11077;50.264;6.798;2022-10-16T10:30:51;16.90;99.90
21830;DHT22;11077;50.264;6.798;2022-10-16T10:33:28;17.00;99.90
21830;DHT22;11077;50.264;6.798;2022-10-16T10:36:07;17.10;99.90
21830;DHT22;11077;50.264;6.798;2022-10-16T10:38:42;17.30;99.90
21830;DHT22;11077;50.264;6.798;2022-10-16T10:44:18;17.70;99.90
21830;DHT22;11077;50.264;6.798;2022-10-16T10:46:54;17.70;99.90
21830;DHT22;11077;50.264;6.798;2022-10-16T10:49:41;17.90;99.90
21830;DHT22;11077;50.264;6.798;2022-10-16T10:52:27;18.00;99.90
21830;DHT22;11077;50.264;6.798;2022-10-16T10:55:10;18.00;99.90
21830;DHT22;11077;50.264;6.798;2022-10-16T10:57:45;18.10;99.90
21830;DHT22;11077;50.264;6.798;2022-10-16T11:00:21;18.20;99.90
21830;DHT22;11077;50.264;6.798;2022-10-16T11:03:00;18.30;99.90
21830;DHT22;11077;50.264;6.798;2022-10-16T11:05:44;18.50;99.90
21830;DHT22;11077;50.264;6.798;2022-10-16T11:08:17;18.50;99.90
21830;DHT22;11077;50.264;6.798;2022-10-16T11:10:52;18.50;99.90
21830;DHT22;11077;50.264;6.798;2022-10-16T11:13:27;18.60;99.90
21830;DHT22;11077;50.264;6.798;2022-10-16T11:16:02;18.70;99.90
21830;DHT22;11077;50.264;6.798;2022-10-16T11:18:42;18.60;99.90
21830;DHT22;11077;50.264;6.798;2022-10-16T11:21:14;18.50;99.90
21830;DHT22;11077;50.264;6.798;2022-10-16T11:23:50;18.50;99.90
21830;DHT22;11077;50.264;6.798;2022-10-16T11:26:21;18.40;99.90
21830;DHT22;11077;50.264;6.798;2022-10-16T11:29:03;18.40;99.90
21830;DHT22;11077;50.264;6.798;2022-10-16T11:31:37;18.40;99.90
21830;DHT22;11077;50.264;6.798;2022-10-16T11:34:09;18.30;99.90
21830;DHT22;11077;50.264;6.798;2022-10-16T11:36:46;18.20;99.90
21830;DHT22;11077;50.264;6.798;2022-10-16T11:39:24;18.00;99.90
21830;DHT22;11077;50.264;6.798;2022-10-16T11:42:02;17.80;99.90
21830;DHT22;11077;50.264;6.798;2022-10-16T11:44:40;17.70;99.90
21830;DHT22;11077;50.264;6.798;2022-10-16T11:47:23;17.50;99.90
21830;DHT22;11077;50.264;6.798;2022-10-16T11:49:55;17.30;99.90
21830;DHT22;11077;50.264;6.798;2022-10-16T11:52:39;17.30;99.90
21830;DHT22;11077;50.264;6.798;2022-10-16T11:55:16;17.20;99.90
21830;DHT22;11077;50.264;6.798;2022-10-16T11:57:49;17.20;99.90
21830;DHT22;11077;50.264;6.798;2022-10-16T12:00:23;17.20;99.90
21830;DHT22;11077;50.264;6.798;2022-10-16T12:02:57;17.10;99.90
21830;DHT22;11077;50.264;6.798;2022-10-16T12:05:33;17.20;99.90
21830;DHT22;11077;50.264;6.798;2022-10-16T12:08:07;17.20;99.90
21830;DHT22;11077;50.264;6.798;2022-10-16T12:10:38;17.10;99.90
21830;DHT22;11077;50.264;6.798;2022-10-16T12:15:48;17.00;99.90
21830;DHT22;11077;50.264;6.798;2022-10-16T12:18:24;17.00;99.90
21830;DHT22;11077;50.264;6.798;2022-10-16T12:20:55;16.90;99.90
21830;DHT22;11077;50.264;6.798;2022-10-16T12:23:30;17.00;99.90
21830;DHT22;11077;50.264;6.798;2022-10-16T12:26:01;17.00;99.90
21830;DHT22;11077;50.264;6.798;2022-10-16T12:28:30;17.00;99.90
21830;DHT22;11077;50.264;6.798;2022-10-16T12:31:06;17.10;99.90
21830;DHT22;11077;50.264;6.798;2022-10-16T12:33:37;17.10;99.90
21830;DHT22;11077;50.264;6.798;2022-10-16T12:36:12;17.10;99.90
21830;DHT22;11077;50.264;6.798;2022-10-16T12:38:47;17.00;99.90
21830;DHT22;11077;50.264;6.798;2022-10-16T12:41:24;17.10;99.90
21830;DHT22;11077;50.264;6.798;2022-10-16T12:43:53;17.00;99.90
21830;DHT22;11077;50.264;6.798;2022-10-16T12:46:24;16.80;99.90
21830;DHT22;11077;50.264;6.798;2022-10-16T12:49:04;16.80;99.90
21830;DHT22;11077;50.264;6.798;2022-10-16T12:51:36;16.80;99.90
21830;DHT22;11077;50.264;6.798;2022-10-16T12:54:10;16.80;99.90
21830;DHT22;11077;50.264;6.798;2022-10-16T12:56:49;16.90;99.90
21830;DHT22;11077;50.264;6.798;2022-10-16T12:59:25;16.90;99.90
21830;DHT22;11077;50.264;6.798;2022-10-16T13:02:08;17.00;99.90
21830;DHT22;11077;50.264;6.798;2022-10-16T13:04:51;17.00;99.90
21830;DHT22;11077;50.264;6.798;2022-10-16T13:07:44;17.10;99.90
21830;DHT22;11077;50.264;6.798;2022-10-16T13:10:23;17.10;99.90
21830;DHT22;11077;50.264;6.798;2022-10-16T13:13:23;17.00;99.90
21830;DHT22;11077;50.264;6.798;2022-10-16T13:16:12;17.00;99.90
21830;DHT22;11077;50.264;6.798;2022-10-16T13:18:50;16.90;99.90
21830;DHT22;11077;50.264;6.798;2022-10-16T13:21:35;16.90;99.90
21830;DHT22;11077;50.264;6.798;2022-10-16T13:24:13;16.90;99.90
21830;DHT22;11077;50.264;6.798;2022-10-16T13:26:48;17.00;99.90
21830;DHT22;11077;50.264;6.798;2022-10-16T13:29:16;17.00;99.90
21830;DHT22;11077;50.264;6.798;2022-10-16T13:31:45;16.90;99.90
21830;DHT22;11077;50.264;6.798;2022-10-16T13:34:15;16.90;99.90
21830;DHT22;11077;50.264;6.798;2022-10-16T13:36:47;16.90;99.90
21830;DHT22;11077;50.264;6.798;2022-10-16T13:39:21;16.70;99.90
21830;DHT22;11077;50.264;6.798;2022-10-16T13:42:02;16.70;99.90
21830;DHT22;11077;50.264;6.798;2022-10-16T13:44:36;16.70;99.90
21830;DHT22;11077;50.264;6.798;2022-10-16T13:47:10;16.60;99.90
21830;DHT22;11077;50.264;6.798;2022-10-16T13:49:42;16.50;99.90
21830;DHT22;11077;50.264;6.798;2022-10-16T13:52:18;16.50;99.90
21830;DHT22;11077;50.264;6.798;2022-10-16T13:54:49;16.50;99.90
21830;DHT22;11077;50.264;6.798;2022-10-16T13:57:17;16.50;99.90
21830;DHT22;11077;50.264;6.798;2022-10-16T13:59:44;16.40;99.90
21830;DHT22;11077;50.264;6.798;2022-10-16T14:02:21;16.40;99.90
21830;DHT22;11077;50.264;6.798;2022-10-16T14:04:50;16.30;99.90
21830;DHT22;11077;50.264;6.798;2022-10-16T14:07:24;16.30;99.90
21830;DHT22;11077;50.264;6.798;2022-10-16T14:09:57;16.30;99.90
21830;DHT22;11077;50.264;6.798;2022-10-16T14:15:17;16.30;99.90
21830;DHT22;11077;50.264;6.798;2022-10-16T14:17:49;16.30;99.90
21830;DHT22;11077;50.264;6.798;2022-10-16T14:20:17;16.30;99.90
21830;DHT22;11077;50.264;6.798;2022-10-16T14:22:57;16.30;99.90
21830;DHT22;11077;50.264;6.798;2022-10-16T14:25:27;16.30;99.90
21830;DHT22;11077;50.264;6.798;2022-10-16T14:28:00;16.40;99.90
21830;DHT22;11077;50.264;6.798;2022-10-16T14:30:32;16.40;99.90
21830;DHT22;11077;50.264;6.798;2022-10-16T14:33:02;16.40;99.90
21830;DHT22;11077;50.264;6.798;2022-10-16T14:35:35;16.40;99.90
21830;DHT22;11077;50.264;6.798;2022-10-16T14:38:15;16.40;99.90
21830;DHT22;11077;50.264;6.798;2022-10-16T14:40:49;16.40;99.90
21830;DHT22;11077;50.264;6.798;2022-10-16T14:43:21;16.30;99.90
21830;DHT22;11077;50.264;6.798;2022-10-16T14:45:54;16.30;99.90
21830;DHT22;11077;50.264;6.798;2022-10-16T14:48:23;16.30;99.90
21830;DHT22;11077;50.264;6.798;2022-10-16T14:50:51;16.30;99.90
21830;DHT22;11077;50.264;6.798;2022-10-16T14:53:20;16.30;99.90
21830;DHT22;11077;50.264;6.798;2022-10-16T14:55:49;16.30;99.90
21830;DHT22;11077;50.264;6.798;2022-10-16T14:58:20;16.30;99.90
21830;DHT22;11077;50.264;6.798;2022-10-16T15:00:49;16.20;99.90
21830;DHT22;11077;50.264;6.798;2022-10-16T15:03:17;16.20;99.90
21830;DHT22;11077;50.264;6.798;2022-10-16T15:05:44;16.20;99.90
21830;DHT22;11077;50.264;6.798;2022-10-16T15:08:12;16.20;99.90
21830;DHT22;11077;50.264;6.798;2022-10-16T15:10:44;16.10;99.90
21830;DHT22;11077;50.264;6.798;2022-10-16T15:13:13;16.10;99.90
21830;DHT22;11077;50.264;6.798;2022-10-16T15:15:44;16.10;99.90
21830;DHT22;11077;50.264;6.798;2022-10-16T15:18:12;16.00;99.90
21830;DHT22;11077;50.264;6.798;2022-10-16T15:20:48;16.00;99.90
21830;DHT22;11077;50.264;6.798;2022-10-16T15:23:21;16.00;99.90
21830;DHT22;11077;50.264;6.798;2022-10-16T15:25:51;16.00;99.90
21830;DHT22;11077;50.264;6.798;2022-10-16T15:28:20;16.00;99.90
21830;DHT22;11077;50.264;6.798;2022-10-16T15:30:50;16.00;99.90
21830;DHT22;11077;50.264;6.798;2022-10-16T15:33:19;15.90;99.90
21830;DHT22;11077;50.264;6.798;2022-10-16T15:35:50;15.90;99.90
21830;DHT22;11077;50.264;6.798;2022-10-16T15:38:20;15.90;99.90
21830;DHT22;11077;50.264;6.798;2022-10-16T15:40:49;15.90;99.90
21830;DHT22;11077;50.264;6.798;2022-10-16T15:43:17;15.90;99.90
21830;DHT22;11077;50.264;6.798;2022-10-16T15:45:45;15.90;99.90
21830;DHT22;11077;50.264;6.798;2022-10-16T15:48:22;15.80;99.90
21830;DHT22;11077;50.264;6.798;2022-10-16T15:50:49;15.80;99.90
21830;DHT22;11077;50.264;6.798;2022-10-16T15:53:17;15.80;99.90
21830;DHT22;11077;50.264;6.798;2022-10-16T15:55:45;15.80;99.90
21830;DHT22;11077;50.264;6.798;2022-10-16T15:58:18;15.80;99.90
21830;DHT22;11077;50.264;6.798;2022-10-16T16:00:54;15.80;99.90
21830;DHT22;11077;50.264;6.798;2022-10-16T16:03:23;15.70;99.90
21830;DHT22;11077;50.264;6.798;2022-10-16T16:05:54;15.70;99.90
21830;DHT22;11077;50.264;6.798;2022-10-16T16:08:34;15.70;99.90